Terminal Aerodrome Forecast
Issued by NWS Sterling, VA

Current Version | Previous Version | Text Only | Print | Product List | Glossary Off
Versions: 1 2 3 4 5 6 7 8 9 10 11 12 13 14 15 16 17 18 19 20 21 22 23 24 25

489
FTUS41 KLWX 142058 AAA
TAFIAD
TAF AMD
KIAD 142058Z 1421/1524 18006KT P6SM BKN150
     FM150200 19007KT P6SM -SHRA OVC050
     FM150500 20008KT 6SM -SHRA OVC025
     FM150600 20008KT 2SM BR OVC015 WS020/23040KT
     FM151000 21007KT 6SM BR BKN015 WS020/24035KT
     FM151300 21008KT P6SM BKN035=

USA.gov is the U.S. government's official web portal to all federal, state and local government web resources and services.